createdAt,value
2022-12-15T00:00:51.867Z,99811.19
2022-12-15T00:03:47.973Z,99805.31
2022-12-15T00:06:35.313Z,99799.13
2022-12-15T00:09:29.306Z,99802.53
2022-12-15T00:12:18.412Z,99796.66
2022-12-15T00:15:05.129Z,99786.09
2022-12-15T00:17:52.374Z,99779.94
2022-12-15T00:20:39.273Z,99784.56
2022-12-15T00:23:28.519Z,99775.03
2022-12-15T00:26:16.806Z,99763.91
2022-12-15T00:29:04.084Z,99766.28
2022-12-15T00:31:50.858Z,99784.00
2022-12-15T00:34:38.394Z,99776.31
2022-12-15T00:37:25.543Z,99776.81
2022-12-15T00:39:59.050Z,99776.97
2022-12-15T00:42:29.130Z,99784.34
2022-12-15T00:44:57.743Z,99780.06
2022-12-15T00:47:26.398Z,99789.19
2022-12-15T00:50:13.488Z,99797.31
2022-12-15T00:53:00.424Z,99795.97
2022-12-15T00:55:47.448Z,99794.09
2022-12-15T00:58:34.158Z,99800.69
2022-12-15T01:01:29.276Z,99810.91
2022-12-15T01:04:16.411Z,99806.19
2022-12-15T01:07:03.793Z,99819.69
2022-12-15T01:09:50.648Z,99819.16
2022-12-15T01:12:37.895Z,99803.22
2022-12-15T01:15:25.350Z,99804.09
2022-12-15T01:18:13.255Z,99807.84
2022-12-15T01:20:41.578Z,99807.84
2022-12-15T01:23:10.257Z,99820.19
2022-12-15T01:25:39.847Z,99824.66
2022-12-15T01:28:08.410Z,99830.31
2022-12-15T01:30:36.640Z,99827.75
2022-12-15T01:33:06.578Z,99828.22
2022-12-15T01:35:35.062Z,99821.47
2022-12-15T01:38:03.596Z,99818.28
2022-12-15T01:40:47.221Z,99823.59
2022-12-15T01:43:20.219Z,99826.41
2022-12-15T01:46:04.626Z,99830.28
2022-12-15T01:48:42.946Z,99823.66
2022-12-15T01:51:27.834Z,99836.84
2022-12-15T01:54:24.127Z,99836.56
2022-12-15T01:57:01.144Z,99837.75
2022-12-15T01:59:33.914Z,99833.53
2022-12-15T02:02:03.425Z,99836.09
2022-12-15T02:04:32.953Z,99836.03
2022-12-15T02:07:01.166Z,99844.28
2022-12-15T02:09:30.232Z,99842.25
2022-12-15T02:12:16.695Z,99840.72
2022-12-15T02:14:57.574Z,99844.00
2022-12-15T02:17:37.495Z,99846.41
2022-12-15T02:20:12.799Z,99841.78
2022-12-15T02:23:11.683Z,99839.41
2022-12-15T02:26:00.825Z,99848.69
2022-12-15T02:28:38.136Z,99851.91
2022-12-15T02:31:36.470Z,99853.00
2022-12-15T02:34:43.484Z,99834.63
2022-12-15T02:37:22.856Z,99834.78
2022-12-15T02:39:51.093Z,99832.53
2022-12-15T02:42:20.205Z,99842.28
2022-12-15T02:45:20.285Z,99845.88
2022-12-15T02:48:12.174Z,99845.63
2022-12-15T02:50:51.573Z,99853.75
2022-12-15T02:53:50.458Z,99851.25
2022-12-15T02:56:26.605Z,99830.53
2022-12-15T02:59:03.905Z,99833.50
2022-12-15T03:01:46.648Z,99825.88
2022-12-15T03:04:16.359Z,99822.44
2022-12-15T03:06:44.577Z,99823.69
2022-12-15T03:09:32.425Z,99822.22
2022-12-15T03:12:01.173Z,99809.50
2022-12-15T03:14:30.205Z,99808.47
2022-12-15T03:16:58.487Z,99832.13
2022-12-15T03:19:27.868Z,99834.19
2022-12-15T03:21:56.625Z,99854.41
2022-12-15T03:24:25.281Z,99851.53
2022-12-15T03:26:53.722Z,99849.31
2022-12-15T03:29:22.453Z,99855.38
2022-12-15T03:31:50.742Z,99847.09
2022-12-15T03:34:20.557Z,99839.56
2022-12-15T03:36:48.994Z,99831.97
2022-12-15T03:39:17.613Z,99843.16
2022-12-15T03:41:45.913Z,99841.13
2022-12-15T03:44:14.755Z,99855.34
2022-12-15T03:46:42.936Z,99855.34
2022-12-15T03:49:11.583Z,99852.06
2022-12-15T03:51:40.582Z,99866.50
2022-12-15T03:54:09.124Z,99887.03
2022-12-15T03:56:37.347Z,99890.25
2022-12-15T03:59:06.314Z,99874.69
2022-12-15T04:01:36.934Z,99874.84
2022-12-15T04:04:05.988Z,99889.22
2022-12-15T04:06:34.275Z,99884.25
2022-12-15T04:09:02.948Z,99898.84
2022-12-15T04:11:31.163Z,99900.66
2022-12-15T04:13:59.883Z,99909.84
2022-12-15T04:16:28.304Z,99904.72
2022-12-15T04:19:16.307Z,99910.19
2022-12-15T04:21:44.528Z,99911.44
2022-12-15T04:24:31.371Z,99924.69
2022-12-15T04:27:17.838Z,99917.38
2022-12-15T04:30:05.088Z,99906.59
2022-12-15T04:32:52.107Z,99916.72
2022-12-15T04:35:39.318Z,99916.97
2022-12-15T04:38:25.940Z,99919.34
2022-12-15T04:41:13.031Z,99926.16
2022-12-15T04:44:00.388Z,99925.91
2022-12-15T04:46:47.312Z,99942.06
2022-12-15T04:49:34.363Z,99942.91
2022-12-15T04:52:21.680Z,99931.47
2022-12-15T04:55:08.962Z,99945.53
2022-12-15T04:57:57.104Z,99941.00
2022-12-15T05:00:44.444Z,99955.28
2022-12-15T05:03:31.798Z,99951.00
2022-12-15T05:06:18.993Z,99955.78
2022-12-15T05:09:06.179Z,99941.19
2022-12-15T05:11:53.148Z,99933.47
2022-12-15T05:14:40.341Z,99941.59
2022-12-15T05:17:27.779Z,99945.44
2022-12-15T05:20:15.197Z,99944.13
2022-12-15T05:23:01.909Z,99946.25
2022-12-15T05:25:49.281Z,99934.00
2022-12-15T05:28:36.814Z,99945.94
2022-12-15T05:31:25.994Z,99940.88
2022-12-15T05:34:04.524Z,99943.75
2022-12-15T05:36:34.289Z,99944.00
2022-12-15T05:39:02.606Z,99949.22
2022-12-15T05:41:31.849Z,99971.75
2022-12-15T05:44:00.703Z,99972.31
2022-12-15T05:46:29.621Z,99983.72
2022-12-15T05:48:57.971Z,99991.38
2022-12-15T05:51:26.679Z,99998.88
2022-12-15T05:53:55.078Z,99988.56
2022-12-15T05:56:25.632Z,99983.25
2022-12-15T05:58:53.960Z,99981.00
2022-12-15T06:01:25.371Z,99987.78
2022-12-15T06:03:53.764Z,99990.44
2022-12-15T06:06:22.661Z,99989.00
2022-12-15T06:08:51.030Z,99991.44
2022-12-15T06:11:21.059Z,99985.25
2022-12-15T06:13:49.730Z,99989.09
2022-12-15T06:16:21.521Z,100004.94
2022-12-15T06:18:54.589Z,100008.53
2022-12-15T06:21:25.841Z,100008.84
2022-12-15T06:23:57.086Z,100013.56
2022-12-15T06:26:39.458Z,100025.28
2022-12-15T06:29:10.800Z,100024.41
2022-12-15T06:31:41.273Z,100022.00
2022-12-15T06:34:13.287Z,100038.06
2022-12-15T06:36:43.265Z,100056.13
2022-12-15T06:39:13.712Z,100060.88
2022-12-15T06:41:44.125Z,100067.13
2022-12-15T06:44:14.857Z,100067.19
2022-12-15T06:46:43.911Z,100081.16
2022-12-15T06:49:12.570Z,100082.06
2022-12-15T06:51:42.350Z,100089.19
2022-12-15T06:54:11.715Z,100084.81
2022-12-15T06:56:40.509Z,100093.19
2022-12-15T06:59:10.320Z,100093.66
2022-12-15T07:01:39.376Z,100082.53
2022-12-15T07:04:08.101Z,100087.38
2022-12-15T07:06:38.769Z,100087.16
2022-12-15T07:09:11.151Z,100086.91
2022-12-15T07:11:41.008Z,100089.25
2022-12-15T07:14:10.050Z,100079.03
2022-12-15T07:16:39.274Z,100086.34
2022-12-15T07:19:11.982Z,100092.59
2022-12-15T07:21:41.649Z,100091.66
2022-12-15T07:24:12.279Z,100099.63
2022-12-15T07:26:43.230Z,100098.94
2022-12-15T07:29:12.199Z,100099.94
2022-12-15T07:31:41.102Z,100107.31
2022-12-15T07:34:09.496Z,100106.69
2022-12-15T07:36:39.332Z,100112.22
2022-12-15T07:39:10.764Z,100132.81
2022-12-15T07:41:40.795Z,100136.66
2022-12-15T07:44:09.220Z,100137.75
2022-12-15T07:46:38.066Z,100130.94
2022-12-15T07:49:06.621Z,100130.41
2022-12-15T07:51:35.361Z,100148.13
2022-12-15T07:54:04.086Z,100155.38
2022-12-15T07:56:38.882Z,100158.47
2022-12-15T07:59:08.621Z,100164.69
2022-12-15T08:01:37.688Z,100167.66
2022-12-15T08:04:07.311Z,100177.50
2022-12-15T08:06:37.340Z,100180.34
2022-12-15T08:09:05.821Z,100173.38
2022-12-15T08:11:35.508Z,100171.59
2022-12-15T08:14:06.921Z,100188.81
2022-12-15T08:16:39.454Z,100180.31
2022-12-15T08:19:11.740Z,100194.97
2022-12-15T08:21:41.105Z,100186.81
2022-12-15T08:24:10.480Z,100182.78
2022-12-15T08:26:39.307Z,100178.94
2022-12-15T08:29:48.836Z,100165.59
2022-12-15T08:32:02.372Z,100157.38
2022-12-15T08:34:31.079Z,100154.50
2022-12-15T08:36:59.566Z,100156.38
2022-12-15T08:39:28.569Z,100153.66
2022-12-15T08:41:56.916Z,100149.28
2022-12-15T08:44:25.457Z,100151.38
2022-12-15T08:46:53.919Z,100151.69
2022-12-15T08:49:22.804Z,100134.03
2022-12-15T08:51:51.968Z,100144.03
2022-12-15T08:54:21.773Z,100140.44
2022-12-15T08:56:50.439Z,100140.97
2022-12-15T08:59:20.459Z,100148.22
2022-12-15T09:01:49.231Z,100144.16
2022-12-15T09:04:19.420Z,100152.50
2022-12-15T09:06:50.852Z,100157.81
2022-12-15T09:09:20.040Z,100155.50
2022-12-15T09:11:48.917Z,100169.72
2022-12-15T09:14:21.589Z,100179.63
2022-12-15T09:16:54.143Z,100176.19
2022-12-15T09:19:23.013Z,100174.84
2022-12-15T09:21:51.322Z,100179.50
2022-12-15T09:24:28.887Z,100182.22
2022-12-15T09:27:03.566Z,100173.03
2022-12-15T09:29:33.001Z,100177.28
2022-12-15T09:32:01.786Z,100180.41
2022-12-15T09:34:30.627Z,100175.75
2022-12-15T09:36:59.366Z,100170.09
2022-12-15T09:39:28.179Z,100156.50
2022-12-15T09:42:00.203Z,100158.72
2022-12-15T09:44:30.835Z,100153.72
2022-12-15T09:47:12.291Z,100141.94
2022-12-15T09:49:56.999Z,100152.06
2022-12-15T09:52:46.689Z,100143.94
2022-12-15T09:55:24.478Z,100145.75
2022-12-15T09:57:56.029Z,100152.22
2022-12-15T10:00:55.644Z,100150.13
2022-12-15T10:03:37.287Z,100166.06
2022-12-15T10:09:21.879Z,100176.44
2022-12-15T10:11:59.696Z,100182.75
2022-12-15T10:14:49.831Z,100164.31
2022-12-15T10:17:28.825Z,100145.06
2022-12-15T10:20:06.087Z,100139.28
2022-12-15T10:22:37.398Z,100143.88
2022-12-15T10:25:30.441Z,100138.66
2022-12-15T10:28:18.108Z,100119.66
2022-12-15T10:31:00.098Z,100124.25
2022-12-15T10:33:36.798Z,100143.84
2022-12-15T10:36:14.280Z,100163.16
2022-12-15T10:38:50.236Z,100162.53
2022-12-15T10:41:26.816Z,100168.38
2022-12-15T10:43:56.475Z,100168.69
2022-12-15T10:46:29.956Z,100172.13
2022-12-15T10:49:02.731Z,100166.69
2022-12-15T10:51:45.645Z,100159.03
2022-12-15T10:54:15.936Z,100162.31
2022-12-15T10:56:55.517Z,100165.38
2022-12-15T10:59:28.889Z,100158.25
2022-12-15T11:02:02.542Z,100152.22
2022-12-15T11:04:32.732Z,100153.09
2022-12-15T11:07:02.860Z,100148.63
2022-12-15T11:09:37.208Z,100140.75
2022-12-15T11:12:42.485Z,100130.59
2022-12-15T11:15:41.729Z,100120.13
2022-12-15T11:18:30.385Z,100112.44
2022-12-15T11:21:21.975Z,100107.47
2022-12-15T11:24:16.043Z,100114.78
2022-12-15T11:27:17.712Z,100112.28
2022-12-15T11:29:57.719Z,100117.13
2022-12-15T11:32:34.796Z,100116.63
2022-12-15T11:35:03.548Z,100122.72
2022-12-15T11:37:39.649Z,100115.69
2022-12-15T11:40:31.208Z,100102.88
2022-12-15T11:43:19.586Z,100082.41
2022-12-15T11:46:17.798Z,100069.47
2022-12-15T11:49:05.085Z,100066.19
2022-12-15T11:52:25.900Z,100043.63
2022-12-15T11:55:00.341Z,100046.75
2022-12-15T11:57:46.978Z,100037.91
2022-12-15T12:00:22.091Z,100033.06
2022-12-15T12:03:01.345Z,100030.41
2022-12-15T12:05:48.887Z,100009.28
2022-12-15T12:08:26.326Z,100001.47
2022-12-15T12:11:14.159Z,99990.06
2022-12-15T12:14:12.590Z,99981.66
2022-12-15T12:16:52.986Z,99988.84
2022-12-15T12:19:50.921Z,99985.66
2022-12-15T12:22:25.891Z,99978.09
2022-12-15T12:25:15.715Z,99984.50
2022-12-15T12:27:55.635Z,99981.22
2022-12-15T12:30:28.791Z,99970.94
2022-12-15T12:33:19.693Z,99976.53
2022-12-15T12:35:59.998Z,99970.53
2022-12-15T12:38:35.370Z,99963.44
2022-12-15T12:41:13.292Z,99957.47
2022-12-15T12:43:50.353Z,99940.97
2022-12-15T12:46:28.277Z,99937.59
2022-12-15T12:49:08.369Z,99935.56
2022-12-15T12:51:42.387Z,99930.78
2022-12-15T12:54:40.511Z,99933.75
2022-12-15T12:57:11.995Z,99949.28
2022-12-15T12:59:48.931Z,99954.00
2022-12-15T13:02:26.075Z,99937.59
2022-12-15T13:05:00.293Z,99926.47
2022-12-15T13:07:30.437Z,99924.25
2022-12-15T13:10:09.244Z,99923.25
2022-12-15T13:12:56.114Z,99929.41
2022-12-15T13:15:27.980Z,99930.19
2022-12-15T13:18:15.394Z,99925.22
2022-12-15T13:20:48.839Z,99926.31
2022-12-15T13:23:22.216Z,99921.34
2022-12-15T13:25:56.799Z,99904.88
2022-12-15T13:28:40.204Z,99920.88
2022-12-15T13:31:21.593Z,99923.94
2022-12-15T13:33:53.086Z,99938.41
2022-12-15T13:36:39.884Z,99927.94
2022-12-15T13:39:17.210Z,99928.25
2022-12-15T13:42:07.909Z,99921.41
2022-12-15T13:44:40.968Z,99930.47
2022-12-15T13:47:17.408Z,99936.88
2022-12-15T13:50:15.117Z,99940.47
2022-12-15T13:55:40.401Z,99951.00
2022-12-15T13:58:16.740Z,99952.81
2022-12-15T14:01:03.994Z,99953.75
2022-12-15T14:03:33.523Z,99952.66
2022-12-15T14:06:02.159Z,99963.81
2022-12-15T14:08:33.269Z,99971.09
2022-12-15T14:13:54.390Z,99970.44
2022-12-15T14:16:23.969Z,99965.50
2022-12-15T14:19:15.084Z,99964.88
2022-12-15T14:21:58.943Z,99966.25
2022-12-15T14:24:41.280Z,99961.53
2022-12-15T14:27:09.700Z,99953.72
2022-12-15T14:29:38.469Z,99943.97
2022-12-15T14:32:08.555Z,99940.88
2022-12-15T14:34:40.222Z,99936.44
2022-12-15T14:37:13.831Z,99933.16
2022-12-15T14:39:45.220Z,99930.72
2022-12-15T14:42:24.235Z,99924.91
2022-12-15T14:44:57.800Z,99930.53
2022-12-15T14:47:29.895Z,99921.06
2022-12-15T14:50:01.672Z,99922.28
2022-12-15T14:52:34.201Z,99911.09
2022-12-15T14:55:23.203Z,99912.97
2022-12-15T14:57:52.979Z,99907.97
2022-12-15T15:00:37.673Z,99902.84
2022-12-15T15:03:11.323Z,100168.84
2022-12-15T15:03:34.897Z,99888.63
2022-12-15T15:06:17.852Z,99883.00
2022-12-15T15:08:48.613Z,99885.66
2022-12-15T15:11:18.484Z,99877.03
2022-12-15T15:13:47.502Z,99864.53
2022-12-15T15:16:19.347Z,99864.13
2022-12-15T15:18:53.660Z,99852.06
2022-12-15T15:21:25.713Z,99844.78
2022-12-15T15:24:12.276Z,99846.66
2022-12-15T15:26:41.105Z,99835.56
2022-12-15T15:29:39.392Z,99833.66
2022-12-15T15:32:21.435Z,99820.28
2022-12-15T15:34:49.984Z,99805.47
2022-12-15T15:37:24.499Z,99796.91
2022-12-15T15:39:54.848Z,99796.03
2022-12-15T15:42:27.918Z,99780.63
2022-12-15T15:45:00.732Z,99779.06
2022-12-15T15:47:29.441Z,99769.56
2022-12-15T15:49:59.797Z,99766.13
2022-12-15T15:52:32.397Z,99752.44
2022-12-15T15:55:03.968Z,99744.72
2022-12-15T15:57:35.103Z,99731.59
2022-12-15T16:00:14.343Z,99714.19
2022-12-15T16:02:43.395Z,99701.13
2022-12-15T16:05:12.196Z,99694.25
2022-12-15T16:07:43.268Z,99683.66
2022-12-15T16:10:17.868Z,99682.25
2022-12-15T16:12:53.459Z,99676.78
2022-12-15T16:15:27.253Z,99681.84
2022-12-15T16:17:57.106Z,99686.47
2022-12-15T16:20:30.161Z,99691.19
2022-12-15T16:23:01.643Z,99682.25
2022-12-15T16:25:39.017Z,99680.72
2022-12-15T16:28:15.255Z,99675.03
2022-12-15T16:30:47.249Z,99673.13
2022-12-15T16:38:31.204Z,99654.53
2022-12-15T16:41:08.547Z,99637.81
2022-12-15T16:43:41.528Z,99627.41
2022-12-15T16:46:15.689Z,99623.56
2022-12-15T16:48:44.679Z,99622.69
2022-12-15T16:51:40.462Z,99619.72
2022-12-15T16:58:35.642Z,99614.44
2022-12-15T17:01:04.473Z,99610.00
2022-12-15T17:03:33.362Z,99610.78
2022-12-15T17:06:05.306Z,99603.16
2022-12-15T17:08:44.218Z,99596.91
2022-12-15T17:11:17.716Z,99589.66
2022-12-15T17:13:51.650Z,99579.50
2022-12-15T17:16:21.415Z,99568.41
2022-12-15T17:18:51.816Z,99575.75
2022-12-15T17:21:22.190Z,99600.25
2022-12-15T17:23:53.935Z,99609.56
2022-12-15T17:26:29.086Z,99605.03
2022-12-15T17:29:06.718Z,99603.66
2022-12-15T17:31:36.151Z,99602.44
2022-12-15T17:34:31.945Z,99599.44
2022-12-15T17:37:03.333Z,99590.75
2022-12-15T17:39:34.537Z,99603.16
2022-12-15T17:42:03.453Z,99610.53
2022-12-15T17:44:37.844Z,99613.91
2022-12-15T17:47:08.588Z,99620.00
2022-12-15T17:49:38.955Z,99625.69
2022-12-15T17:52:19.469Z,99634.94
2022-12-15T17:54:48.078Z,99655.59
2022-12-15T17:57:16.387Z,99653.03
2022-12-15T17:59:45.029Z,99640.97
2022-12-15T18:02:14.574Z,99641.16
2022-12-15T18:04:44.132Z,99651.94
2022-12-15T18:07:17.527Z,99647.00
2022-12-15T18:09:46.630Z,99644.59
2022-12-15T18:12:23.117Z,99647.34
2022-12-15T18:14:52.862Z,99654.63
2022-12-15T18:17:21.285Z,99655.72
2022-12-15T18:19:49.840Z,99651.44
2022-12-15T18:22:23.904Z,99647.06
2022-12-15T18:24:53.980Z,99646.66
2022-12-15T18:27:27.591Z,99635.69
2022-12-15T18:29:56.836Z,99639.09
2022-12-15T18:32:26.566Z,99624.97
2022-12-15T18:34:55.480Z,99608.63
2022-12-15T18:37:25.288Z,99602.28
2022-12-15T18:39:58.319Z,99589.19
2022-12-15T18:42:32.485Z,99577.03
2022-12-15T18:45:02.661Z,99567.38
2022-12-15T18:47:30.938Z,99564.28
2022-12-15T18:49:59.872Z,99553.03
2022-12-15T18:52:33.103Z,99549.50
2022-12-15T18:55:03.346Z,99549.31
2022-12-15T18:57:33.640Z,99547.09
2022-12-15T19:00:27.973Z,99536.09
2022-12-15T19:02:58.396Z,99534.63
2022-12-15T19:05:29.139Z,99523.22
2022-12-15T19:08:10.489Z,99523.22
2022-12-15T19:10:56.166Z,99514.50
2022-12-15T19:13:31.928Z,99514.66
2022-12-15T19:16:03.380Z,99507.81
2022-12-15T19:18:50.528Z,99501.19
2022-12-15T19:21:45.390Z,99500.50
2022-12-15T19:24:16.953Z,99503.25
2022-12-15T19:26:45.414Z,99505.44
2022-12-15T19:29:22.652Z,99511.09
2022-12-15T19:31:52.192Z,99508.59
2022-12-15T19:34:21.130Z,99506.22
2022-12-15T19:36:49.618Z,99499.47
2022-12-15T19:39:24.024Z,99501.47
2022-12-15T19:41:53.619Z,99508.66
2022-12-15T19:44:23.389Z,99512.50
2022-12-15T19:46:52.613Z,99516.19
2022-12-15T19:49:20.775Z,99531.50
2022-12-15T19:51:49.519Z,99533.38
2022-12-15T19:54:21.585Z,99537.47
2022-12-15T19:56:50.140Z,99526.13
2022-12-15T19:59:22.534Z,99522.25
2022-12-15T20:01:54.372Z,99473.13
2022-12-15T20:04:24.642Z,99453.19
2022-12-15T20:06:54.581Z,99441.00
2022-12-15T20:09:22.945Z,99428.88
2022-12-15T20:11:51.366Z,99415.25
2022-12-15T20:14:19.576Z,99408.44
2022-12-15T20:16:50.598Z,99399.91
2022-12-15T20:19:19.397Z,99394.19
2022-12-15T20:21:47.900Z,99380.66
2022-12-15T20:24:19.057Z,99391.53
2022-12-15T20:26:48.806Z,99406.72
2022-12-15T20:29:26.495Z,99408.59
2022-12-15T20:31:55.951Z,99408.91
2022-12-15T20:34:25.149Z,99407.47
2022-12-15T20:36:53.555Z,99410.88
2022-12-15T20:39:27.577Z,99426.72
2022-12-15T20:41:56.854Z,99445.56
2022-12-15T20:44:25.305Z,99457.56
2022-12-15T20:46:53.857Z,99468.56
2022-12-15T20:49:23.005Z,99461.56
2022-12-15T20:51:52.007Z,99445.72
2022-12-15T20:54:22.517Z,99435.72
2022-12-15T20:56:51.419Z,99444.53
2022-12-15T20:59:20.428Z,99454.72
2022-12-15T21:01:49.825Z,99474.63
2022-12-15T21:04:26.064Z,99475.59
2022-12-15T21:06:56.554Z,99476.28
2022-12-15T21:09:25.401Z,99480.06
2022-12-15T21:11:56.595Z,99484.13
2022-12-15T21:14:25.159Z,99482.75
2022-12-15T21:16:53.894Z,99498.50
2022-12-15T21:19:23.166Z,99499.66
2022-12-15T21:21:55.592Z,99497.88
2022-12-15T21:24:28.678Z,99500.25
2022-12-15T21:26:57.968Z,99514.97
2022-12-15T21:29:28.412Z,99515.84
2022-12-15T21:31:57.518Z,99526.72
2022-12-15T21:34:25.835Z,99521.69
2022-12-15T21:36:54.959Z,99518.81
2022-12-15T21:39:30.021Z,99506.66
2022-12-15T21:42:01.940Z,99489.38
2022-12-15T21:44:30.288Z,99494.69
2022-12-15T21:46:58.920Z,99486.34
2022-12-15T21:49:27.342Z,99493.53
2022-12-15T21:51:58.184Z,99491.91
2022-12-15T21:54:31.391Z,99481.75
2022-12-15T21:57:00.912Z,99484.69
2022-12-15T21:59:31.800Z,99462.00
2022-12-15T22:02:01.968Z,99468.06
2022-12-15T22:04:33.158Z,99482.59
2022-12-15T22:07:02.028Z,99480.41
2022-12-15T22:09:30.280Z,99470.81
2022-12-15T22:11:59.089Z,99453.00
2022-12-15T22:14:33.353Z,99443.94
2022-12-15T22:17:14.901Z,99435.38
2022-12-15T22:19:43.447Z,99429.22
2022-12-15T22:22:14.304Z,99430.16
2022-12-15T22:24:43.214Z,99431.38
2022-12-15T22:27:32.565Z,99440.88
2022-12-15T22:30:00.763Z,99435.94
2022-12-15T22:32:30.587Z,99437.38
2022-12-15T22:34:58.771Z,99433.63
2022-12-15T22:37:27.293Z,99439.69
2022-12-15T22:39:55.495Z,99434.03
2022-12-15T22:42:25.139Z,99436.28
2022-12-15T22:44:54.850Z,99436.00
2022-12-15T22:47:23.591Z,99435.34
2022-12-15T22:49:51.882Z,99428.50
2022-12-15T22:52:21.371Z,99422.41
2022-12-15T22:55:15.053Z,99420.38
2022-12-15T22:57:53.002Z,99423.47
2022-12-15T23:00:21.390Z,99431.94
2022-12-15T23:02:50.049Z,99432.53
2022-12-15T23:05:20.576Z,99424.00
2022-12-15T23:07:49.220Z,99424.41
2022-12-15T23:10:37.799Z,99436.16
2022-12-15T23:13:06.566Z,99441.25
2022-12-15T23:15:53.141Z,99448.97
2022-12-15T23:18:23.365Z,99451.00
2022-12-15T23:20:51.894Z,99446.66
2022-12-15T23:23:20.469Z,99432.47
2022-12-15T23:25:48.696Z,99437.19
2022-12-15T23:28:17.209Z,99446.72
2022-12-15T23:30:52.087Z,99455.63
2022-12-15T23:33:21.276Z,99462.13
2022-12-15T23:35:49.519Z,99454.88
2022-12-15T23:38:19.176Z,99459.41
2022-12-15T23:40:52.832Z,99451.78
2022-12-15T23:43:23.830Z,99446.31
2022-12-15T23:46:00.800Z,99452.72
2022-12-15T23:48:31.832Z,99434.16
2022-12-15T23:51:14.992Z,99422.53
2022-12-15T23:53:44.511Z,99422.94
2022-12-15T23:56:18.833Z,99409.13
2022-12-15T23:58:57.963Z,99407.25
